createdAt,value
2023-04-16T00:00:48.692Z,89.44
2023-04-16T00:03:32.174Z,89.55
2023-04-16T00:06:00.791Z,89.81
2023-04-16T00:08:28.832Z,90.00
2023-04-16T00:10:56.756Z,90.02
2023-04-16T00:13:26.178Z,90.15
2023-04-16T00:15:54.104Z,90.10
2023-04-16T00:18:22.156Z,89.92
2023-04-16T00:20:50.898Z,89.67
2023-04-16T00:23:19.138Z,90.05
2023-04-16T00:25:47.472Z,90.09
2023-04-16T00:28:15.398Z,90.00
2023-04-16T00:30:43.625Z,90.47
2023-04-16T00:33:12.025Z,90.52
2023-04-16T00:35:40.011Z,90.78
2023-04-16T00:38:08.502Z,90.97
2023-04-16T00:40:36.557Z,90.94
2023-04-16T00:43:04.642Z,90.84
2023-04-16T00:45:32.886Z,90.39
2023-04-16T00:48:01.261Z,91.15
2023-04-16T00:50:29.862Z,91.63
2023-04-16T00:52:58.329Z,91.58
2023-04-16T00:55:27.303Z,91.56
2023-04-16T00:57:55.348Z,91.28
2023-04-16T01:00:23.763Z,91.56
2023-04-16T01:02:52.398Z,91.11
2023-04-16T01:05:21.118Z,91.23
2023-04-16T01:07:49.044Z,91.76
2023-04-16T01:10:17.357Z,91.33
2023-04-16T01:12:45.732Z,91.89
2023-04-16T01:15:13.639Z,91.95
2023-04-16T01:17:46.200Z,92.66
2023-04-16T01:20:15.018Z,92.74
2023-04-16T01:22:42.986Z,92.23
2023-04-16T01:25:15.939Z,92.48
2023-04-16T01:27:43.996Z,92.36
2023-04-16T01:30:12.210Z,92.31
2023-04-16T01:32:49.533Z,92.36
2023-04-16T01:35:18.455Z,92.17
2023-04-16T01:37:46.705Z,92.21
2023-04-16T01:40:14.613Z,92.37
2023-04-16T01:42:42.582Z,92.46
2023-04-16T01:45:11.226Z,92.63
2023-04-16T01:47:39.237Z,92.84
2023-04-16T01:50:07.879Z,93.05
2023-04-16T01:52:35.971Z,92.92
2023-04-16T01:55:04.158Z,93.22
2023-04-16T01:57:32.080Z,94.85
2023-04-16T01:59:59.919Z,95.60
2023-04-16T02:02:29.520Z,97.15
2023-04-16T02:04:57.961Z,95.91
2023-04-16T02:07:26.100Z,96.60
2023-04-16T02:09:54.263Z,97.04
2023-04-16T02:12:22.160Z,96.32
2023-04-16T02:14:50.089Z,96.41
2023-04-16T02:17:19.351Z,97.23
2023-04-16T02:19:50.493Z,97.34
2023-04-16T02:22:18.828Z,96.65
2023-04-16T02:24:47.289Z,96.37
2023-04-16T02:27:16.238Z,97.08
2023-04-16T02:29:45.037Z,96.51
2023-04-16T02:32:15.851Z,96.85
2023-04-16T02:34:45.661Z,96.94
2023-04-16T02:37:15.449Z,96.58
2023-04-16T02:39:44.142Z,96.72
2023-04-16T02:42:38.699Z,97.99
2023-04-16T02:45:15.597Z,99.19
2023-04-16T02:47:43.555Z,98.39
2023-04-16T02:50:11.832Z,99.09
2023-04-16T02:52:39.890Z,98.15
2023-04-16T02:55:08.919Z,97.29
2023-04-16T02:57:36.890Z,98.01
2023-04-16T03:00:05.286Z,98.38
2023-04-16T03:02:33.583Z,98.46
2023-04-16T03:05:02.007Z,98.60
2023-04-16T03:07:30.325Z,98.66
2023-04-16T03:09:58.606Z,97.86
2023-04-16T03:12:26.497Z,98.36
2023-04-16T03:14:54.451Z,97.74
2023-04-16T03:17:22.372Z,98.18
2023-04-16T03:19:51.037Z,97.65
2023-04-16T03:22:20.853Z,97.51
2023-04-16T03:24:49.179Z,97.14
2023-04-16T03:27:17.066Z,97.29
2023-04-16T03:29:45.873Z,98.12
2023-04-16T03:32:14.671Z,97.85
2023-04-16T03:34:45.607Z,97.76
2023-04-16T03:37:13.494Z,98.12
2023-04-16T03:39:41.635Z,97.84
2023-04-16T03:42:11.901Z,98.15
2023-04-16T03:44:39.900Z,98.00
2023-04-16T03:47:07.833Z,97.79
2023-04-16T03:49:36.874Z,99.42
2023-04-16T03:52:05.112Z,98.66
2023-04-16T03:54:33.143Z,98.62
2023-04-16T03:57:10.434Z,98.30
2023-04-16T03:59:38.788Z,98.40
2023-04-16T04:02:07.415Z,98.89
2023-04-16T04:04:35.527Z,99.18
2023-04-16T04:07:04.342Z,98.51
2023-04-16T04:09:34.105Z,98.78
2023-04-16T04:12:04.555Z,98.65
2023-04-16T04:14:32.971Z,98.67
2023-04-16T04:17:00.982Z,98.75
2023-04-16T04:19:28.880Z,99.08
2023-04-16T04:21:56.778Z,99.85
2023-04-16T04:24:24.786Z,100.00
2023-04-16T04:26:52.784Z,100.00
2023-04-16T04:29:20.799Z,100.00
2023-04-16T04:31:48.759Z,100.00
2023-04-16T04:34:17.162Z,100.00
2023-04-16T04:36:45.721Z,100.00
2023-04-16T04:39:15.171Z,100.00
2023-04-16T04:41:44.065Z,100.00
2023-04-16T04:44:12.020Z,100.00
2023-04-16T04:46:40.948Z,100.00
2023-04-16T04:49:09.446Z,100.00
2023-04-16T04:51:38.101Z,100.00
2023-04-16T04:54:06.591Z,100.00
2023-04-16T04:56:34.658Z,100.00
2023-04-16T04:59:02.650Z,100.00
2023-04-16T05:01:30.673Z,100.00
2023-04-16T05:03:58.799Z,100.00
2023-04-16T05:06:29.561Z,100.00
2023-04-16T05:08:57.625Z,100.00
2023-04-16T05:11:25.593Z,100.00
2023-04-16T05:13:53.642Z,100.00
2023-04-16T05:16:21.576Z,100.00
2023-04-16T05:18:50.531Z,100.00
2023-04-16T05:21:18.490Z,100.00
2023-04-16T05:23:46.364Z,100.00
2023-04-16T05:26:14.327Z,100.00
2023-04-16T05:28:42.209Z,100.00
2023-04-16T05:31:10.345Z,100.00
2023-04-16T05:33:38.403Z,100.00
2023-04-16T05:36:06.573Z,100.00
2023-04-16T05:38:34.474Z,100.00
2023-04-16T05:41:02.403Z,100.00
2023-04-16T05:43:30.333Z,100.00
2023-04-16T05:45:58.286Z,100.00
2023-04-16T05:48:26.173Z,100.00
2023-04-16T05:50:54.104Z,100.00
2023-04-16T05:53:22.094Z,100.00
2023-04-16T05:55:50.057Z,100.00
2023-04-16T05:58:17.962Z,100.00
2023-04-16T06:00:45.924Z,100.00
2023-04-16T06:03:13.989Z,100.00
2023-04-16T06:05:42.051Z,100.00
2023-04-16T06:08:10.163Z,100.00
2023-04-16T06:10:38.108Z,100.00
2023-04-16T06:13:06.138Z,100.00
2023-04-16T06:15:34.095Z,100.00
2023-04-16T06:18:02.071Z,100.00
2023-04-16T06:20:30.763Z,100.00
2023-04-16T06:22:58.741Z,100.00
2023-04-16T06:25:26.679Z,100.00
2023-04-16T06:27:54.603Z,100.00
2023-04-16T06:30:22.605Z,100.00
2023-04-16T06:32:50.724Z,100.00
2023-04-16T06:35:20.385Z,100.00
2023-04-16T06:37:48.456Z,100.00
2023-04-16T06:40:16.704Z,100.00
2023-04-16T06:42:45.682Z,100.00
2023-04-16T06:45:14.062Z,100.00
2023-04-16T06:47:42.109Z,100.00
2023-04-16T06:50:10.662Z,100.00
2023-04-16T06:52:38.736Z,100.00
2023-04-16T06:55:09.909Z,100.00
2023-04-16T06:57:38.061Z,100.00
2023-04-16T07:00:06.902Z,100.00
2023-04-16T07:02:35.317Z,100.00
2023-04-16T07:05:03.821Z,100.00
2023-04-16T07:07:32.269Z,100.00
2023-04-16T07:10:00.442Z,100.00
2023-04-16T07:12:28.550Z,100.00
2023-04-16T07:14:56.773Z,100.00
2023-04-16T07:17:25.432Z,100.00
2023-04-16T07:19:54.228Z,100.00
2023-04-16T07:22:22.163Z,100.00
2023-04-16T07:24:50.353Z,100.00
2023-04-16T07:27:18.317Z,100.00
2023-04-16T07:29:46.727Z,100.00
2023-04-16T07:32:15.617Z,100.00
2023-04-16T07:34:43.920Z,100.00
2023-04-16T07:37:11.863Z,100.00
2023-04-16T07:39:40.258Z,100.00
2023-04-16T07:42:08.282Z,100.00
2023-04-16T07:44:36.448Z,100.00
2023-04-16T07:47:05.603Z,100.00
2023-04-16T07:49:34.258Z,100.00
2023-04-16T07:52:02.311Z,100.00
2023-04-16T07:54:30.276Z,100.00
2023-04-16T07:56:58.144Z,100.00
2023-04-16T07:59:26.396Z,100.00
2023-04-16T08:01:54.792Z,99.81
2023-04-16T08:04:25.702Z,99.63
2023-04-16T08:06:54.543Z,98.13
2023-04-16T08:09:24.177Z,98.39
2023-04-16T08:11:52.326Z,98.21
2023-04-16T08:14:20.570Z,99.68
2023-04-16T08:16:49.505Z,99.24
2023-04-16T08:19:17.572Z,96.54
2023-04-16T08:21:47.114Z,96.08
2023-04-16T08:24:15.155Z,95.40
2023-04-16T08:26:43.116Z,94.52
2023-04-16T08:29:11.347Z,93.78
2023-04-16T08:31:39.623Z,90.07
2023-04-16T08:34:07.720Z,90.98
2023-04-16T08:36:35.683Z,91.84
2023-04-16T08:39:03.962Z,90.80
2023-04-16T08:41:36.380Z,89.78
2023-04-16T08:44:09.449Z,89.65
2023-04-16T08:46:38.393Z,88.84
2023-04-16T08:49:08.321Z,89.30
2023-04-16T08:51:37.152Z,88.09
2023-04-16T08:54:09.233Z,87.01
2023-04-16T08:56:40.777Z,87.35
2023-04-16T08:59:10.126Z,88.69
2023-04-16T09:01:41.773Z,88.55
2023-04-16T09:04:10.134Z,87.36
2023-04-16T09:06:39.018Z,86.84
2023-04-16T09:09:09.139Z,87.08
2023-04-16T09:11:39.580Z,86.56
2023-04-16T09:14:11.307Z,82.15
2023-04-16T09:16:39.866Z,80.45
2023-04-16T09:19:08.132Z,82.06
2023-04-16T09:21:36.927Z,83.20
2023-04-16T09:24:05.526Z,85.10
2023-04-16T09:26:34.171Z,80.93
2023-04-16T09:29:02.902Z,78.92
2023-04-16T09:31:30.903Z,80.82
2023-04-16T09:34:09.278Z,80.58
2023-04-16T09:36:37.715Z,82.86
2023-04-16T09:39:06.548Z,81.51
2023-04-16T09:41:39.887Z,81.09
2023-04-16T09:44:08.307Z,77.22
2023-04-16T09:46:43.328Z,75.13
2023-04-16T09:49:17.685Z,73.86
2023-04-16T09:51:51.060Z,74.82
2023-04-16T09:54:24.197Z,76.28
2023-04-16T09:56:56.850Z,73.55
2023-04-16T09:59:25.709Z,73.49
2023-04-16T10:02:15.771Z,72.30
2023-04-16T10:04:48.560Z,75.18
2023-04-16T10:07:17.773Z,77.21
2023-04-16T10:09:50.189Z,76.37
2023-04-16T10:12:18.396Z,71.27
2023-04-16T10:14:48.302Z,67.97
2023-04-16T10:17:17.850Z,66.93
2023-04-16T10:19:46.805Z,65.37
2023-04-16T10:22:15.460Z,63.13
2023-04-16T10:24:44.225Z,66.01
2023-04-16T10:27:12.445Z,65.85
2023-04-16T10:29:41.592Z,60.33
2023-04-16T10:32:10.480Z,62.01
2023-04-16T10:34:39.466Z,64.26
2023-04-16T10:37:07.391Z,64.61
2023-04-16T10:39:37.678Z,61.70
2023-04-16T10:42:13.174Z,57.87
2023-04-16T10:44:44.337Z,61.41
2023-04-16T10:47:14.462Z,59.49
2023-04-16T10:49:44.085Z,60.24
2023-04-16T10:52:17.178Z,60.78
2023-04-16T10:54:48.022Z,59.55
2023-04-16T10:57:18.154Z,57.64
2023-04-16T10:59:48.890Z,57.30
2023-04-16T11:02:19.619Z,57.10
2023-04-16T11:04:49.313Z,57.93
2023-04-16T11:07:20.639Z,58.06
2023-04-16T11:09:54.688Z,57.10
2023-04-16T11:12:27.789Z,57.24
2023-04-16T11:15:03.388Z,58.94
2023-04-16T11:17:37.328Z,60.89
2023-04-16T11:20:19.062Z,59.04
2023-04-16T11:22:54.827Z,58.64
2023-04-16T11:25:30.355Z,59.46
2023-04-16T11:28:01.639Z,58.86
2023-04-16T11:30:37.590Z,60.26
2023-04-16T11:33:08.515Z,60.24
2023-04-16T11:35:37.311Z,59.17
2023-04-16T11:38:09.102Z,57.29
2023-04-16T11:40:37.130Z,55.32
2023-04-16T11:43:15.040Z,55.46
2023-04-16T11:46:10.319Z,56.59
2023-04-16T11:48:55.673Z,56.39
2023-04-16T11:51:24.078Z,56.06
2023-04-16T11:53:54.361Z,53.88
2023-04-16T11:56:29.994Z,49.93
2023-04-16T11:59:09.037Z,50.40
2023-04-16T12:01:39.283Z,47.86
2023-04-16T12:04:08.556Z,48.38
2023-04-16T12:06:37.119Z,47.74
2023-04-16T12:09:26.108Z,48.44
2023-04-16T12:11:54.306Z,47.50
2023-04-16T12:14:23.797Z,49.21
2023-04-16T12:16:51.874Z,50.56
2023-04-16T12:19:21.001Z,49.86
2023-04-16T12:21:50.113Z,49.24
2023-04-16T12:24:24.278Z,49.20
2023-04-16T12:26:57.503Z,49.72
2023-04-16T12:29:27.630Z,50.83
2023-04-16T12:31:55.968Z,49.78
2023-04-16T12:34:29.021Z,48.87
2023-04-16T12:37:13.019Z,48.91
2023-04-16T12:39:41.497Z,49.72
2023-04-16T12:42:11.553Z,49.75
2023-04-16T12:44:39.782Z,49.87
2023-04-16T12:47:08.407Z,49.48
2023-04-16T12:49:37.411Z,48.28
2023-04-16T12:52:06.465Z,47.19
2023-04-16T12:54:36.738Z,46.95
2023-04-16T12:57:05.192Z,45.66
2023-04-16T12:59:33.321Z,46.78
2023-04-16T13:02:02.893Z,45.74
2023-04-16T13:04:31.230Z,42.91
2023-04-16T13:06:59.905Z,44.75
2023-04-16T13:09:28.696Z,42.62
2023-04-16T13:11:56.707Z,44.28
2023-04-16T13:14:24.843Z,43.19
2023-04-16T13:16:52.811Z,41.92
2023-04-16T13:19:21.369Z,39.66
2023-04-16T13:21:49.496Z,41.71
2023-04-16T13:24:17.518Z,43.03
2023-04-16T13:26:45.526Z,43.23
2023-04-16T13:29:13.704Z,42.52
2023-04-16T13:31:41.804Z,43.05
2023-04-16T13:34:10.905Z,43.03
2023-04-16T13:36:39.069Z,42.89
2023-04-16T13:39:11.709Z,42.06
2023-04-16T13:41:40.477Z,41.46
2023-04-16T13:44:08.695Z,41.12
2023-04-16T13:46:36.805Z,40.84
2023-04-16T13:49:05.019Z,41.54
2023-04-16T13:51:33.064Z,39.85
2023-04-16T13:54:01.258Z,39.73
2023-04-16T13:56:29.244Z,40.80
2023-04-16T13:59:13.218Z,41.56
2023-04-16T14:01:49.419Z,41.42
2023-04-16T14:04:26.065Z,40.94
2023-04-16T14:06:57.143Z,41.01
2023-04-16T14:09:30.611Z,41.54
2023-04-16T14:11:59.042Z,41.08
2023-04-16T14:14:27.407Z,40.52
2023-04-16T14:16:55.951Z,41.85
2023-04-16T14:19:26.075Z,41.90
2023-04-16T14:21:57.813Z,42.56
2023-04-16T14:24:26.176Z,42.86
2023-04-16T14:26:54.441Z,43.01
2023-04-16T14:29:22.373Z,41.94
2023-04-16T14:31:50.617Z,40.03
2023-04-16T14:34:18.673Z,41.53
2023-04-16T14:36:47.075Z,42.37
2023-04-16T14:39:16.189Z,42.41
2023-04-16T14:41:44.454Z,41.98
2023-04-16T14:44:12.501Z,42.39
2023-04-16T14:46:41.213Z,39.73
2023-04-16T14:49:12.215Z,40.15
2023-04-16T14:51:41.961Z,40.99
2023-04-16T14:54:10.126Z,41.16
2023-04-16T14:56:41.363Z,40.65
2023-04-16T14:59:24.329Z,40.61
2023-04-16T15:01:59.579Z,39.20
2023-04-16T15:04:28.341Z,40.33
2023-04-16T15:06:59.571Z,40.92
2023-04-16T15:09:28.017Z,41.09
2023-04-16T15:11:57.146Z,41.19
2023-04-16T15:14:25.454Z,41.75
2023-04-16T15:16:53.947Z,42.05
2023-04-16T15:19:22.559Z,41.99
2023-04-16T15:21:50.580Z,41.63
2023-04-16T15:24:19.099Z,41.78
2023-04-16T15:26:51.478Z,41.63
2023-04-16T15:29:19.648Z,41.38
2023-04-16T15:31:47.963Z,41.61
2023-04-16T15:34:16.079Z,41.90
2023-04-16T15:36:44.269Z,42.08
2023-04-16T15:39:12.554Z,42.64
2023-04-16T15:41:53.639Z,42.91
2023-04-16T15:44:27.290Z,43.49
2023-04-16T15:46:55.365Z,43.62
2023-04-16T15:49:25.010Z,44.29
2023-04-16T15:51:53.918Z,44.27
2023-04-16T15:54:22.050Z,44.80
2023-04-16T15:56:50.568Z,45.03
2023-04-16T15:59:18.572Z,45.00
2023-04-16T16:01:46.711Z,45.23
2023-04-16T16:04:14.819Z,45.49
2023-04-16T16:06:43.186Z,45.82
2023-04-16T16:09:11.800Z,45.87
2023-04-16T16:11:40.299Z,46.02
2023-04-16T16:14:08.272Z,46.41
2023-04-16T16:16:36.957Z,46.56
2023-04-16T16:19:05.565Z,47.15
2023-04-16T16:21:33.936Z,47.57
2023-04-16T16:24:02.280Z,47.51
2023-04-16T16:26:31.714Z,47.84
2023-04-16T16:28:59.811Z,48.00
2023-04-16T16:31:30.605Z,48.10
2023-04-16T16:33:58.565Z,48.34
2023-04-16T16:36:30.206Z,48.39
2023-04-16T16:38:58.290Z,48.60
2023-04-16T16:41:26.567Z,48.78
2023-04-16T16:43:56.450Z,48.88
2023-04-16T16:46:24.772Z,49.10
2023-04-16T16:48:52.807Z,49.23
2023-04-16T16:51:21.649Z,49.39
2023-04-16T16:53:49.597Z,49.61
2023-04-16T16:56:17.613Z,49.81
2023-04-16T16:58:45.546Z,49.73
2023-04-16T17:01:13.651Z,50.33
2023-04-16T17:03:41.821Z,50.38
2023-04-16T17:06:09.933Z,50.55
2023-04-16T17:08:38.342Z,50.77
2023-04-16T17:11:06.407Z,50.78
2023-04-16T17:13:34.599Z,51.03
2023-04-16T17:16:02.564Z,51.15
2023-04-16T17:18:30.921Z,51.50
2023-04-16T17:20:58.800Z,51.62
2023-04-16T17:23:27.073Z,51.84
2023-04-16T17:25:55.012Z,51.94
2023-04-16T17:28:23.192Z,51.99
2023-04-16T17:30:52.613Z,52.22
2023-04-16T17:33:20.690Z,52.71
2023-04-16T17:35:49.217Z,52.76
2023-04-16T17:38:17.403Z,53.07
2023-04-16T17:40:45.500Z,53.31
2023-04-16T17:43:13.575Z,53.55
2023-04-16T17:45:41.661Z,53.69
2023-04-16T17:48:09.686Z,54.11
2023-04-16T17:50:39.506Z,54.42
2023-04-16T17:53:07.999Z,54.62
2023-04-16T17:55:36.096Z,54.94
2023-04-16T17:58:04.935Z,54.98
2023-04-16T18:00:33.119Z,55.24
2023-04-16T18:03:01.367Z,55.50
2023-04-16T18:05:31.006Z,55.49
2023-04-16T18:07:59.260Z,55.53
2023-04-16T18:10:29.710Z,55.77
2023-04-16T18:12:57.886Z,56.31
2023-04-16T18:15:25.907Z,56.67
2023-04-16T18:17:54.525Z,56.82
2023-04-16T18:20:22.659Z,56.97
2023-04-16T18:22:50.695Z,57.19
2023-04-16T18:25:21.546Z,57.51
2023-04-16T18:27:58.950Z,57.59
2023-04-16T18:30:26.991Z,57.88
2023-04-16T18:35:30.067Z,58.75
2023-04-16T18:37:58.012Z,59.12
2023-04-16T18:40:26.234Z,59.26
2023-04-16T18:42:54.161Z,60.54
2023-04-16T18:45:22.214Z,61.24
2023-04-16T18:47:51.056Z,61.39
2023-04-16T18:50:18.951Z,62.01
2023-04-16T18:52:47.130Z,61.38
2023-04-16T18:55:15.561Z,61.43
2023-04-16T18:57:43.695Z,62.45
2023-04-16T19:00:13.070Z,63.62
2023-04-16T19:02:41.409Z,63.96
2023-04-16T19:05:10.057Z,63.79
2023-04-16T19:07:38.738Z,63.63
2023-04-16T19:10:07.576Z,63.70
2023-04-16T19:12:35.870Z,63.69
2023-04-16T19:15:04.898Z,64.14
2023-04-16T19:17:33.050Z,64.03
2023-04-16T19:20:01.001Z,64.70
2023-04-16T19:22:29.388Z,65.28
2023-04-16T19:24:57.818Z,65.62
2023-04-16T19:27:29.212Z,66.27
2023-04-16T19:29:57.267Z,66.00
2023-04-16T19:32:25.544Z,65.84
2023-04-16T19:34:53.768Z,67.29
2023-04-16T19:37:21.965Z,67.82
2023-04-16T19:39:50.601Z,68.01
2023-04-16T19:42:18.942Z,67.86
2023-04-16T19:44:46.926Z,68.49
2023-04-16T19:47:15.043Z,68.91
2023-04-16T19:49:44.287Z,68.45
2023-04-16T19:52:21.209Z,67.76
2023-04-16T19:54:51.783Z,67.32
2023-04-16T19:57:19.782Z,67.24
2023-04-16T19:59:47.844Z,67.58
2023-04-16T20:02:15.763Z,67.77
2023-04-16T20:04:44.908Z,67.98
2023-04-16T20:07:14.843Z,67.49
2023-04-16T20:09:43.328Z,67.48
2023-04-16T20:12:11.763Z,67.53
2023-04-16T20:14:40.548Z,67.48
2023-04-16T20:17:10.331Z,67.34
2023-04-16T20:19:38.633Z,67.16
2023-04-16T20:22:06.753Z,67.62
2023-04-16T20:24:34.837Z,67.88
2023-04-16T20:27:03.264Z,67.85
2023-04-16T20:29:31.332Z,67.87
2023-04-16T20:31:59.599Z,68.19
2023-04-16T20:34:28.592Z,68.44
2023-04-16T20:36:58.128Z,68.43
2023-04-16T20:39:27.388Z,68.40
2023-04-16T20:41:58.250Z,68.71
2023-04-16T20:44:33.343Z,68.74
2023-04-16T20:47:01.417Z,69.01
2023-04-16T20:49:30.341Z,69.29
2023-04-16T20:51:58.370Z,69.45
2023-04-16T20:54:27.254Z,69.55
2023-04-16T20:56:56.199Z,69.34
2023-04-16T20:59:25.047Z,69.12
2023-04-16T21:01:52.935Z,69.80
2023-04-16T21:04:21.444Z,69.82
2023-04-16T21:06:53.605Z,69.85
2023-04-16T21:09:21.972Z,70.37
2023-04-16T21:11:49.998Z,73.15
2023-04-16T21:14:19.202Z,74.49
2023-04-16T21:16:47.148Z,75.16
2023-04-16T21:19:15.090Z,75.50
2023-04-16T21:21:43.049Z,76.36
2023-04-16T21:24:10.963Z,76.86
2023-04-16T21:26:38.851Z,77.76
2023-04-16T21:29:06.736Z,77.06
2023-04-16T21:31:34.844Z,78.29
2023-04-16T21:34:02.829Z,78.64
2023-04-16T21:36:33.233Z,79.04
2023-04-16T21:39:01.667Z,79.26
2023-04-16T21:41:29.720Z,79.07
2023-04-16T21:43:57.637Z,79.30
2023-04-16T21:46:26.432Z,80.00
2023-04-16T21:48:54.396Z,79.32
2023-04-16T21:51:29.324Z,79.15
2023-04-16T21:53:57.675Z,78.59
2023-04-16T21:56:26.223Z,80.32
2023-04-16T21:58:54.230Z,79.48
2023-04-16T22:01:22.228Z,79.94
2023-04-16T22:03:52.216Z,80.63
2023-04-16T22:06:20.688Z,79.95
2023-04-16T22:08:50.269Z,80.50
2023-04-16T22:11:18.403Z,79.63
2023-04-16T22:13:47.862Z,80.11
2023-04-16T22:16:16.386Z,80.82
2023-04-16T22:18:45.447Z,81.49
2023-04-16T22:21:13.773Z,81.01
2023-04-16T22:23:41.875Z,80.90
2023-04-16T22:26:10.196Z,81.35
2023-04-16T22:28:38.124Z,81.65
2023-04-16T22:31:06.020Z,82.79
2023-04-16T22:33:33.908Z,83.18
2023-04-16T22:36:01.825Z,82.61
2023-04-16T22:38:29.733Z,83.27
2023-04-16T22:40:57.630Z,84.03
2023-04-16T22:43:25.501Z,82.45
2023-04-16T22:46:04.770Z,82.66
2023-04-16T22:48:36.412Z,82.62
2023-04-16T22:51:07.230Z,83.14
2023-04-16T22:53:35.371Z,83.44
2023-04-16T22:56:03.270Z,84.61
2023-04-16T22:58:31.184Z,85.01
2023-04-16T23:00:59.634Z,84.78
2023-04-16T23:03:29.354Z,84.85
2023-04-16T23:05:57.810Z,85.50
2023-04-16T23:08:25.719Z,85.53
2023-04-16T23:10:53.608Z,85.06
2023-04-16T23:13:21.547Z,85.49
2023-04-16T23:15:52.729Z,85.75
2023-04-16T23:18:23.704Z,86.34
2023-04-16T23:20:52.782Z,86.38
2023-04-16T23:23:21.113Z,86.10
2023-04-16T23:25:53.483Z,87.42
2023-04-16T23:28:22.147Z,86.66
2023-04-16T23:30:53.317Z,86.15
2023-04-16T23:33:21.860Z,85.32
2023-04-16T23:35:50.054Z,85.05
2023-04-16T23:38:18.037Z,85.08
2023-04-16T23:40:46.121Z,84.96
2023-04-16T23:43:18.007Z,84.86
2023-04-16T23:45:46.012Z,85.20
2023-04-16T23:48:13.958Z,85.05
2023-04-16T23:50:41.840Z,85.08
2023-04-16T23:53:09.762Z,84.62
2023-04-16T23:55:37.879Z,84.43
2023-04-16T23:58:07.154Z,84.46
